EDT,Max TemperatureF,Mean TemperatureF,Min TemperatureF,Max Dew PointF,MeanDew PointF,Min DewpointF,Max Humidity, Mean Humidity, Min Humidity, Max Sea Level PressureIn, Mean Sea Level PressureIn, Min Sea Level PressureIn, Max VisibilityMiles, Mean VisibilityMiles, Min VisibilityMiles, Max Wind SpeedMPH, Mean Wind SpeedMPH, Max Gust SpeedMPH,PrecipitationIn, CloudCover, Events, WindDirDegrees
2013-3-1,41,37,33,28,26,25,75,68,53,29.79,29.69,29.61,10,10,10,14,8,23,0.00,8,,339
2013-3-2,35,32,28,21,21,19,74,65,56,29.74,29.71,29.67,10,10,10,12,8,20,0.00,8,,331
2013-3-3,30,27,24,19,17,14,74,65,55,29.69,29.67,29.63,10,9,2,16,9,23,0.00,8,Snow,328
2013-3-4,37,30,24,19,16,14,64,59,48,29.83,29.74,29.69,10,10,10,20,11,31,0.00,6,,323
2013-3-5,44,36,28,27,22,18,65,59,46,30.02,29.96,29.85,10,10,10,15,9,26,0.00,4,,14
2013-3-6,37,35,33,30,27,25,81,71,65,30.01,29.96,29.91,10,9,2,24,10,40,0.00,8,Rain-Snow,70
2013-3-7,35,32,30,28,25,21,86,75,64,30.04,29.97,29.91,10,5,1,26,18,39,0.00,8,Snow,20
2013-3-8,41,34,28,30,25,19,86,74,52,30.16,30.03,29.95,10,5,0,16,12,23,0.01,6,Fog-Snow,349
2013-3-9,53,42,30,25,20,18,65,52,28,30.33,30.23,30.16,10,10,10,14,9,17,0.00,0,,346
2013-3-10,44,34,24,32,25,18,87,73,53,30.38,30.33,30.29,10,10,10,9,2,,0.00,1,,172
2013-3-11,48,40,33,43,35,30,93,83,71,30.31,30.22,30.12,10,7,0,14,5,20,0.00,7,,191
2013-3-12,53,47,39,50,44,34,94,87,76,30.12,29.93,29.71,10,6,0,18,11,26,0.00,8,Fog-Rain,194
2013-3-13,46,40,33,34,26,19,81,61,37,29.85,29.82,29.76,10,10,10,13,10,22,0.00,2,,320
2013-3-14,33,30,26,25,15,7,70,53,40,29.88,29.83,29.80,10,10,9,17,8,29,0.00,7,,308
2013-3-15,37,30,23,27,14,5,70,50,38,29.91,29.81,29.70,10,10,5,15,9,26,0.00,2,Snow,291
2013-3-16,35,30,26,25,19,12,80,62,41,29.88,29.80,29.73,10,9,1,13,7,16,0.00,5,Snow,325
2013-3-17,33,27,21,23,11,7,80,54,32,30.29,30.07,29.90,10,10,10,17,7,25,0.00,1,,349
2013-3-18,33,27,21,23,8,0,80,49,32,30.40,30.29,30.07,10,8,1,14,8,23,0.00,3,Snow,74
2013-3-19,35,32,28,30,27,23,87,82,75,30.05,29.81,29.65,10,5,1,14,10,28,0.00,7,Rain-Snow,39
2013-3-20,39,32,26,27,18,14,80,59,39,29.82,29.79,29.75,10,10,10,15,8,24,0.00,3,,283
2013-3-21,33,30,26,21,14,9,74,51,38,29.76,29.68,29.61,10,9,2,13,6,21,0.00,6,Snow,5
2013-3-22,37,30,23,19,14,9,60,52,43,29.81,29.72,29.66,10,10,10,13,7,23,0.00,1,Snow,301
2013-3-23,42,36,30,19,18,16,64,53,34,29.87,29.81,29.75,10,10,10,17,9,29,0.00,4,,294
2013-3-24,42,34,26,21,18,14,64,52,42,29.90,29.81,29.72,10,10,10,12,5,25,0.00,1,,352
2013-3-25,42,37,32,25,23,19,70,59,46,29.73,29.61,29.40,10,10,10,17,7,25,0.00,3,,59
2013-3-26,46,38,30,27,23,18,70,57,40,29.83,29.69,29.56,10,10,10,15,8,23,0.00,5,,340
2013-3-27,50,40,30,25,20,18,64,50,32,29.92,29.86,29.82,10,10,10,12,4,26,0.00,2,,319
2013-3-28,46,40,35,30,27,25,70,61,46,30.07,29.97,29.92,10,10,6,13,7,23,0.00,5,,326
2013-3-29,51,44,37,30,27,25,65,54,38,30.11,30.08,30.03,10,10,10,12,7,21,0.00,4,,326
2013-3-30,53,44,35,28,23,16,70,51,26,30.14,30.10,30.05,10,10,10,16,5,24,0.00,1,,344
2013-3-31,53,40,28,39,25,16,87,57,35,30.13,30.00,29.67,10,9,3,16,3,28,0.17,3,,155